sensor_id;sensor_type;location;lat;lon;timestamp;temperature;humidity
7648;DHT22;3866;48.020;11.720;2023-04-06T00:00:38;-1.90;99.90
7648;DHT22;3866;48.020;11.720;2023-04-06T00:03:05;-1.90;99.90
7648;DHT22;3866;48.020;11.720;2023-04-06T00:05:34;-1.80;99.90
7648;DHT22;3866;48.020;11.720;2023-04-06T00:08:01;-1.60;99.90
7648;DHT22;3866;48.020;11.720;2023-04-06T00:10:28;-1.60;99.90
7648;DHT22;3866;48.020;11.720;2023-04-06T00:12:55;-1.70;99.90
7648;DHT22;3866;48.020;11.720;2023-04-06T00:15:23;-1.70;99.90
7648;DHT22;3866;48.020;11.720;2023-04-06T00:17:50;-1.60;99.90
7648;DHT22;3866;48.020;11.720;2023-04-06T00:20:17;-1.60;99.90
7648;DHT22;3866;48.020;11.720;2023-04-06T00:22:46;-1.50;99.90
7648;DHT22;3866;48.020;11.720;2023-04-06T00:25:13;-1.60;99.90
7648;DHT22;3866;48.020;11.720;2023-04-06T00:27:41;-1.80;99.90
7648;DHT22;3866;48.020;11.720;2023-04-06T00:30:09;-1.90;99.90
7648;DHT22;3866;48.020;11.720;2023-04-06T00:32:36;-1.90;99.90
7648;DHT22;3866;48.020;11.720;2023-04-06T00:35:03;-2.10;99.90
7648;DHT22;3866;48.020;11.720;2023-04-06T00:37:31;-2.00;99.90
7648;DHT22;3866;48.020;11.720;2023-04-06T00:39:59;-2.20;99.90
7648;DHT22;3866;48.020;11.720;2023-04-06T00:42:26;-2.20;99.90
7648;DHT22;3866;48.020;11.720;2023-04-06T00:44:54;-2.00;99.90
7648;DHT22;3866;48.020;11.720;2023-04-06T00:47:22;-2.10;99.90
7648;DHT22;3866;48.020;11.720;2023-04-06T00:49:50;-2.10;99.90
7648;DHT22;3866;48.020;11.720;2023-04-06T00:52:18;-1.90;99.90
7648;DHT22;3866;48.020;11.720;2023-04-06T00:54:45;-2.00;99.90
7648;DHT22;3866;48.020;11.720;2023-04-06T00:57:13;-2.10;99.90
7648;DHT22;3866;48.020;11.720;2023-04-06T00:59:41;-2.20;99.90
7648;DHT22;3866;48.020;11.720;2023-04-06T01:02:08;-2.20;99.90
7648;DHT22;3866;48.020;11.720;2023-04-06T01:04:35;-2.20;99.90
7648;DHT22;3866;48.020;11.720;2023-04-06T01:07:02;-2.10;99.90
7648;DHT22;3866;48.020;11.720;2023-04-06T01:09:29;-2.10;99.90
7648;DHT22;3866;48.020;11.720;2023-04-06T01:11:56;-2.20;99.90
7648;DHT22;3866;48.020;11.720;2023-04-06T01:14:25;-2.20;99.90
7648;DHT22;3866;48.020;11.720;2023-04-06T01:16:53;-2.20;99.90
7648;DHT22;3866;48.020;11.720;2023-04-06T01:19:20;-2.20;99.90
7648;DHT22;3866;48.020;11.720;2023-04-06T01:21:49;-2.20;99.90
7648;DHT22;3866;48.020;11.720;2023-04-06T01:24:20;-2.20;99.90
7648;DHT22;3866;48.020;11.720;2023-04-06T01:26:47;-2.20;99.90
7648;DHT22;3866;48.020;11.720;2023-04-06T01:29:14;-2.30;99.90
7648;DHT22;3866;48.020;11.720;2023-04-06T01:31:45;-2.30;99.90
7648;DHT22;3866;48.020;11.720;2023-04-06T01:34:12;-2.30;99.90
7648;DHT22;3866;48.020;11.720;2023-04-06T01:36:39;-2.40;99.90
7648;DHT22;3866;48.020;11.720;2023-04-06T01:39:06;-2.30;99.90
7648;DHT22;3866;48.020;11.720;2023-04-06T01:41:35;-2.30;99.90
7648;DHT22;3866;48.020;11.720;2023-04-06T01:44:02;-2.30;99.90
7648;DHT22;3866;48.020;11.720;2023-04-06T01:46:29;-2.30;99.90
7648;DHT22;3866;48.020;11.720;2023-04-06T01:48:56;-2.30;99.90
7648;DHT22;3866;48.020;11.720;2023-04-06T01:51:23;-2.30;99.90
7648;DHT22;3866;48.020;11.720;2023-04-06T01:53:51;-2.30;99.90
7648;DHT22;3866;48.020;11.720;2023-04-06T01:56:18;-2.30;99.90
7648;DHT22;3866;48.020;11.720;2023-04-06T01:58:47;-2.30;99.90
7648;DHT22;3866;48.020;11.720;2023-04-06T02:01:14;-2.40;99.90
7648;DHT22;3866;48.020;11.720;2023-04-06T02:03:41;-2.40;99.90
7648;DHT22;3866;48.020;11.720;2023-04-06T02:06:08;-2.50;99.90
7648;DHT22;3866;48.020;11.720;2023-04-06T02:08:34;-2.50;99.90
7648;DHT22;3866;48.020;11.720;2023-04-06T02:11:01;-2.40;99.90
7648;DHT22;3866;48.020;11.720;2023-04-06T02:13:29;-2.40;99.90
7648;DHT22;3866;48.020;11.720;2023-04-06T02:15:57;-2.50;99.90
7648;DHT22;3866;48.020;11.720;2023-04-06T02:18:24;-2.50;99.90
7648;DHT22;3866;48.020;11.720;2023-04-06T02:20:51;-2.40;99.90
7648;DHT22;3866;48.020;11.720;2023-04-06T02:23:18;-2.20;99.90
7648;DHT22;3866;48.020;11.720;2023-04-06T02:25:45;-2.40;99.90
7648;DHT22;3866;48.020;11.720;2023-04-06T02:28:12;-2.50;99.90
7648;DHT22;3866;48.020;11.720;2023-04-06T02:30:39;-2.50;99.90
7648;DHT22;3866;48.020;11.720;2023-04-06T02:33:07;-2.30;99.90
7648;DHT22;3866;48.020;11.720;2023-04-06T02:35:34;-2.30;99.90
7648;DHT22;3866;48.020;11.720;2023-04-06T02:38:01;-2.20;99.90
7648;DHT22;3866;48.020;11.720;2023-04-06T02:40:28;-2.20;99.90
7648;DHT22;3866;48.020;11.720;2023-04-06T02:42:55;-2.40;99.90
7648;DHT22;3866;48.020;11.720;2023-04-06T02:45:22;-2.50;99.90
7648;DHT22;3866;48.020;11.720;2023-04-06T02:47:49;-2.60;99.90
7648;DHT22;3866;48.020;11.720;2023-04-06T02:50:17;-2.10;99.90
7648;DHT22;3866;48.020;11.720;2023-04-06T02:52:44;-2.10;99.90
7648;DHT22;3866;48.020;11.720;2023-04-06T02:55:11;-2.10;99.90
7648;DHT22;3866;48.020;11.720;2023-04-06T02:57:38;-2.10;99.90
7648;DHT22;3866;48.020;11.720;2023-04-06T03:00:07;-2.30;99.90
7648;DHT22;3866;48.020;11.720;2023-04-06T03:02:34;-2.50;99.90
7648;DHT22;3866;48.020;11.720;2023-04-06T03:05:01;-2.60;99.90
7648;DHT22;3866;48.020;11.720;2023-04-06T03:07:30;-2.50;99.90
7648;DHT22;3866;48.020;11.720;2023-04-06T03:09:57;-2.60;99.90
7648;DHT22;3866;48.020;11.720;2023-04-06T03:12:24;-2.60;99.90
7648;DHT22;3866;48.020;11.720;2023-04-06T03:14:51;-2.50;99.90
7648;DHT22;3866;48.020;11.720;2023-04-06T03:17:18;-2.60;99.90
7648;DHT22;3866;48.020;11.720;2023-04-06T03:19:45;-2.50;99.90
7648;DHT22;3866;48.020;11.720;2023-04-06T03:22:12;-2.30;99.90
7648;DHT22;3866;48.020;11.720;2023-04-06T03:24:40;-2.00;99.90
7648;DHT22;3866;48.020;11.720;2023-04-06T03:27:07;-1.90;99.90
7648;DHT22;3866;48.020;11.720;2023-04-06T03:29:34;-1.90;99.90
7648;DHT22;3866;48.020;11.720;2023-04-06T03:32:01;-1.90;99.90
7648;DHT22;3866;48.020;11.720;2023-04-06T03:34:28;-1.90;99.90
7648;DHT22;3866;48.020;11.720;2023-04-06T03:36:55;-2.20;99.90
7648;DHT22;3866;48.020;11.720;2023-04-06T03:39:22;-2.30;99.90
7648;DHT22;3866;48.020;11.720;2023-04-06T03:41:50;-2.50;99.90
7648;DHT22;3866;48.020;11.720;2023-04-06T03:44:17;-2.50;99.90
7648;DHT22;3866;48.020;11.720;2023-04-06T03:46:44;-2.50;99.90
7648;DHT22;3866;48.020;11.720;2023-04-06T03:49:11;-2.50;99.90
7648;DHT22;3866;48.020;11.720;2023-04-06T03:51:38;-2.50;99.90
7648;DHT22;3866;48.020;11.720;2023-04-06T03:54:05;-2.40;99.90
7648;DHT22;3866;48.020;11.720;2023-04-06T03:56:32;-2.30;99.90
7648;DHT22;3866;48.020;11.720;2023-04-06T03:59:01;-2.40;99.90
7648;DHT22;3866;48.020;11.720;2023-04-06T04:01:28;-2.50;99.90
7648;DHT22;3866;48.020;11.720;2023-04-06T04:03:55;-2.60;99.90
7648;DHT22;3866;48.020;11.720;2023-04-06T04:06:22;-2.60;99.90
7648;DHT22;3866;48.020;11.720;2023-04-06T04:08:49;-2.60;99.90
7648;DHT22;3866;48.020;11.720;2023-04-06T04:11:16;-2.50;99.90
7648;DHT22;3866;48.020;11.720;2023-04-06T04:13:43;-2.50;99.90
7648;DHT22;3866;48.020;11.720;2023-04-06T04:16:11;-2.40;99.90
7648;DHT22;3866;48.020;11.720;2023-04-06T04:18:38;-2.50;99.90
7648;DHT22;3866;48.020;11.720;2023-04-06T04:21:05;-2.50;99.90
7648;DHT22;3866;48.020;11.720;2023-04-06T04:23:32;-2.40;99.90
7648;DHT22;3866;48.020;11.720;2023-04-06T04:25:59;-2.40;99.90
7648;DHT22;3866;48.020;11.720;2023-04-06T04:28:26;-2.40;99.90
7648;DHT22;3866;48.020;11.720;2023-04-06T04:30:53;-2.50;99.90
7648;DHT22;3866;48.020;11.720;2023-04-06T04:33:23;-2.30;99.90
7648;DHT22;3866;48.020;11.720;2023-04-06T04:35:50;-2.40;99.90
7648;DHT22;3866;48.020;11.720;2023-04-06T04:38:17;-2.40;99.90
7648;DHT22;3866;48.020;11.720;2023-04-06T04:40:44;-2.50;99.90
7648;DHT22;3866;48.020;11.720;2023-04-06T04:43:11;-2.40;99.90
7648;DHT22;3866;48.020;11.720;2023-04-06T04:45:38;-2.30;99.90
7648;DHT22;3866;48.020;11.720;2023-04-06T04:48:05;-2.30;99.90
7648;DHT22;3866;48.020;11.720;2023-04-06T04:50:35;-2.30;99.90
7648;DHT22;3866;48.020;11.720;2023-04-06T04:53:02;-2.40;99.90
7648;DHT22;3866;48.020;11.720;2023-04-06T04:55:31;-2.30;99.90
7648;DHT22;3866;48.020;11.720;2023-04-06T04:57:58;-2.40;99.90
7648;DHT22;3866;48.020;11.720;2023-04-06T05:00:25;-2.50;99.90
7648;DHT22;3866;48.020;11.720;2023-04-06T05:02:52;-2.40;99.90
7648;DHT22;3866;48.020;11.720;2023-04-06T05:05:19;-2.40;99.90
7648;DHT22;3866;48.020;11.720;2023-04-06T05:07:48;-2.50;99.90
7648;DHT22;3866;48.020;11.720;2023-04-06T05:10:15;-2.40;99.90
7648;DHT22;3866;48.020;11.720;2023-04-06T05:12:42;-2.40;99.90
7648;DHT22;3866;48.020;11.720;2023-04-06T05:15:10;-2.20;99.90
7648;DHT22;3866;48.020;11.720;2023-04-06T05:17:37;-1.90;99.90
7648;DHT22;3866;48.020;11.720;2023-04-06T05:20:05;-2.00;99.90
7648;DHT22;3866;48.020;11.720;2023-04-06T05:22:32;-1.90;99.90
7648;DHT22;3866;48.020;11.720;2023-04-06T05:25:01;-1.90;99.90
7648;DHT22;3866;48.020;11.720;2023-04-06T05:27:28;-2.00;99.90
7648;DHT22;3866;48.020;11.720;2023-04-06T05:29:55;-1.90;99.90
7648;DHT22;3866;48.020;11.720;2023-04-06T05:32:22;-1.90;99.90
7648;DHT22;3866;48.020;11.720;2023-04-06T05:34:50;-1.90;99.90
7648;DHT22;3866;48.020;11.720;2023-04-06T05:37:17;-1.60;99.90
7648;DHT22;3866;48.020;11.720;2023-04-06T05:39:44;-1.40;99.90
7648;DHT22;3866;48.020;11.720;2023-04-06T05:42:13;-1.00;99.90
7648;DHT22;3866;48.020;11.720;2023-04-06T05:44:41;-0.70;99.90
7648;DHT22;3866;48.020;11.720;2023-04-06T05:47:08;-0.60;99.90
7648;DHT22;3866;48.020;11.720;2023-04-06T05:49:35;-0.60;99.90
7648;DHT22;3866;48.020;11.720;2023-04-06T05:52:02;-0.50;99.90
7648;DHT22;3866;48.020;11.720;2023-04-06T05:54:29;-0.30;99.90
7648;DHT22;3866;48.020;11.720;2023-04-06T05:56:56;0.00;99.90
7648;DHT22;3866;48.020;11.720;2023-04-06T05:59:25;0.20;99.90
7648;DHT22;3866;48.020;11.720;2023-04-06T06:01:52;0.70;99.90
7648;DHT22;3866;48.020;11.720;2023-04-06T06:04:19;1.20;99.90
7648;DHT22;3866;48.020;11.720;2023-04-06T06:06:46;2.00;99.90
7648;DHT22;3866;48.020;11.720;2023-04-06T06:09:13;3.50;99.90
7648;DHT22;3866;48.020;11.720;2023-04-06T06:11:40;4.10;99.90
7648;DHT22;3866;48.020;11.720;2023-04-06T06:14:07;4.30;99.90
7648;DHT22;3866;48.020;11.720;2023-04-06T06:16:36;4.70;99.90
7648;DHT22;3866;48.020;11.720;2023-04-06T06:19:03;5.60;99.90
7648;DHT22;3866;48.020;11.720;2023-04-06T06:21:30;5.80;99.90
7648;DHT22;3866;48.020;11.720;2023-04-06T06:23:57;5.90;99.90
7648;DHT22;3866;48.020;11.720;2023-04-06T06:26:24;7.00;99.90
7648;DHT22;3866;48.020;11.720;2023-04-06T06:28:51;7.40;99.90
7648;DHT22;3866;48.020;11.720;2023-04-06T06:31:18;8.20;99.90
7648;DHT22;3866;48.020;11.720;2023-04-06T06:33:47;8.50;99.90
7648;DHT22;3866;48.020;11.720;2023-04-06T06:36:16;8.60;99.90
7648;DHT22;3866;48.020;11.720;2023-04-06T06:38:43;8.50;99.90
7648;DHT22;3866;48.020;11.720;2023-04-06T06:41:13;8.90;99.90
7648;DHT22;3866;48.020;11.720;2023-04-06T06:43:40;8.20;99.90
7648;DHT22;3866;48.020;11.720;2023-04-06T06:46:07;7.20;99.90
7648;DHT22;3866;48.020;11.720;2023-04-06T06:48:34;8.80;99.90
7648;DHT22;3866;48.020;11.720;2023-04-06T06:51:03;10.90;99.90
7648;DHT22;3866;48.020;11.720;2023-04-06T06:53:30;11.50;99.90
7648;DHT22;3866;48.020;11.720;2023-04-06T06:55:57;10.90;99.90
7648;DHT22;3866;48.020;11.720;2023-04-06T06:58:24;10.40;99.90
7648;DHT22;3866;48.020;11.720;2023-04-06T07:00:55;9.50;99.90
7648;DHT22;3866;48.020;11.720;2023-04-06T07:03:22;9.10;99.90
7648;DHT22;3866;48.020;11.720;2023-04-06T07:05:50;7.70;99.90
7648;DHT22;3866;48.020;11.720;2023-04-06T07:08:24;7.60;99.90
7648;DHT22;3866;48.020;11.720;2023-04-06T07:10:52;9.10;99.90
7648;DHT22;3866;48.020;11.720;2023-04-06T07:13:21;9.60;99.90
7648;DHT22;3866;48.020;11.720;2023-04-06T07:15:49;10.80;99.90
7648;DHT22;3866;48.020;11.720;2023-04-06T07:18:17;11.60;99.90
7648;DHT22;3866;48.020;11.720;2023-04-06T07:20:44;10.70;99.90
7648;DHT22;3866;48.020;11.720;2023-04-06T07:23:11;10.70;99.90
7648;DHT22;3866;48.020;11.720;2023-04-06T07:25:39;9.50;99.90
7648;DHT22;3866;48.020;11.720;2023-04-06T07:28:06;8.50;99.90
7648;DHT22;3866;48.020;11.720;2023-04-06T07:30:33;7.90;99.90
7648;DHT22;3866;48.020;11.720;2023-04-06T07:33:00;7.80;99.90
7648;DHT22;3866;48.020;11.720;2023-04-06T07:35:28;8.90;99.90
7648;DHT22;3866;48.020;11.720;2023-04-06T07:37:55;10.00;99.90
7648;DHT22;3866;48.020;11.720;2023-04-06T07:40:23;10.60;99.90
7648;DHT22;3866;48.020;11.720;2023-04-06T07:42:53;9.70;99.90
7648;DHT22;3866;48.020;11.720;2023-04-06T07:45:20;9.40;99.90
7648;DHT22;3866;48.020;11.720;2023-04-06T07:47:47;10.90;99.90
7648;DHT22;3866;48.020;11.720;2023-04-06T07:50:15;12.20;99.90
7648;DHT22;3866;48.020;11.720;2023-04-06T07:52:42;12.90;99.90
7648;DHT22;3866;48.020;11.720;2023-04-06T07:55:09;11.60;99.90
7648;DHT22;3866;48.020;11.720;2023-04-06T07:57:36;12.20;99.90
7648;DHT22;3866;48.020;11.720;2023-04-06T08:00:06;10.80;99.90
7648;DHT22;3866;48.020;11.720;2023-04-06T08:02:34;11.40;99.90
7648;DHT22;3866;48.020;11.720;2023-04-06T08:05:02;11.10;99.90
7648;DHT22;3866;48.020;11.720;2023-04-06T08:07:28;11.90;99.90
7648;DHT22;3866;48.020;11.720;2023-04-06T08:09:55;11.60;99.90
7648;DHT22;3866;48.020;11.720;2023-04-06T08:12:23;12.10;99.90
7648;DHT22;3866;48.020;11.720;2023-04-06T08:14:50;14.10;99.90
7648;DHT22;3866;48.020;11.720;2023-04-06T08:17:18;14.10;99.90
7648;DHT22;3866;48.020;11.720;2023-04-06T08:19:45;10.90;99.90
7648;DHT22;3866;48.020;11.720;2023-04-06T08:22:12;12.10;99.90
7648;DHT22;3866;48.020;11.720;2023-04-06T08:24:39;13.80;99.70
7648;DHT22;3866;48.020;11.720;2023-04-06T08:27:06;12.20;99.20
7648;DHT22;3866;48.020;11.720;2023-04-06T08:29:33;14.40;98.00
7648;DHT22;3866;48.020;11.720;2023-04-06T08:32:00;15.10;97.80
7648;DHT22;3866;48.020;11.720;2023-04-06T08:34:32;14.20;98.10
7648;DHT22;3866;48.020;11.720;2023-04-06T08:36:59;16.00;96.30
7648;DHT22;3866;48.020;11.720;2023-04-06T08:39:26;16.00;97.60
7648;DHT22;3866;48.020;11.720;2023-04-06T08:41:53;11.20;97.30
7648;DHT22;3866;48.020;11.720;2023-04-06T08:44:22;9.80;99.90
7648;DHT22;3866;48.020;11.720;2023-04-06T08:46:49;9.30;99.90
7648;DHT22;3866;48.020;11.720;2023-04-06T08:49:18;9.20;99.90
7648;DHT22;3866;48.020;11.720;2023-04-06T08:51:47;10.40;99.90
7648;DHT22;3866;48.020;11.720;2023-04-06T08:54:14;12.10;98.70
7648;DHT22;3866;48.020;11.720;2023-04-06T08:56:42;11.80;99.50
7648;DHT22;3866;48.020;11.720;2023-04-06T08:59:09;11.90;99.30
7648;DHT22;3866;48.020;11.720;2023-04-06T09:01:39;13.20;96.30
7648;DHT22;3866;48.020;11.720;2023-04-06T09:04:07;12.70;97.10
7648;DHT22;3866;48.020;11.720;2023-04-06T09:06:36;13.10;96.60
7648;DHT22;3866;48.020;11.720;2023-04-06T09:09:05;10.90;97.70
7648;DHT22;3866;48.020;11.720;2023-04-06T09:11:45;12.20;97.10
7648;DHT22;3866;48.020;11.720;2023-04-06T09:14:12;12.10;99.70
7648;DHT22;3866;48.020;11.720;2023-04-06T09:16:40;12.90;97.00
7648;DHT22;3866;48.020;11.720;2023-04-06T09:19:07;12.60;96.30
7648;DHT22;3866;48.020;11.720;2023-04-06T09:21:35;12.20;97.70
7648;DHT22;3866;48.020;11.720;2023-04-06T09:24:04;12.40;96.70
7648;DHT22;3866;48.020;11.720;2023-04-06T09:26:31;12.60;96.30
7648;DHT22;3866;48.020;11.720;2023-04-06T09:28:59;11.60;97.90
7648;DHT22;3866;48.020;11.720;2023-04-06T09:31:28;12.20;97.10
7648;DHT22;3866;48.020;11.720;2023-04-06T09:33:56;12.50;96.40
7648;DHT22;3866;48.020;11.720;2023-04-06T09:36:30;12.00;96.80
7648;DHT22;3866;48.020;11.720;2023-04-06T09:38:59;11.50;97.70
7648;DHT22;3866;48.020;11.720;2023-04-06T09:41:29;10.20;98.30
7648;DHT22;3866;48.020;11.720;2023-04-06T09:44:03;9.70;99.90
7648;DHT22;3866;48.020;11.720;2023-04-06T09:46:32;10.80;98.50
7648;DHT22;3866;48.020;11.720;2023-04-06T09:49:01;10.70;98.20
7648;DHT22;3866;48.020;11.720;2023-04-06T09:51:30;10.40;99.60
7648;DHT22;3866;48.020;11.720;2023-04-06T09:53:57;10.00;99.60
7648;DHT22;3866;48.020;11.720;2023-04-06T09:56:30;9.70;99.90
7648;DHT22;3866;48.020;11.720;2023-04-06T09:59:02;9.50;99.90
7648;DHT22;3866;48.020;11.720;2023-04-06T10:01:33;9.10;99.90
7648;DHT22;3866;48.020;11.720;2023-04-06T10:04:08;9.70;99.60
7648;DHT22;3866;48.020;11.720;2023-04-06T10:06:38;10.60;98.30
7648;DHT22;3866;48.020;11.720;2023-04-06T10:09:07;10.00;99.90
7648;DHT22;3866;48.020;11.720;2023-04-06T10:11:36;9.70;99.90
7648;DHT22;3866;48.020;11.720;2023-04-06T10:14:03;10.20;98.70
7648;DHT22;3866;48.020;11.720;2023-04-06T10:16:31;10.20;98.50
7648;DHT22;3866;48.020;11.720;2023-04-06T10:19:04;9.80;99.90
7648;DHT22;3866;48.020;11.720;2023-04-06T10:21:34;10.30;99.90
7648;DHT22;3866;48.020;11.720;2023-04-06T10:24:07;10.60;98.00
7648;DHT22;3866;48.020;11.720;2023-04-06T10:26:37;9.70;99.10
7648;DHT22;3866;48.020;11.720;2023-04-06T10:29:05;9.60;99.90
7648;DHT22;3866;48.020;11.720;2023-04-06T10:31:32;10.40;98.00
7648;DHT22;3866;48.020;11.720;2023-04-06T10:34:00;10.60;97.70
7648;DHT22;3866;48.020;11.720;2023-04-06T10:36:32;10.50;98.20
7648;DHT22;3866;48.020;11.720;2023-04-06T10:39:01;10.30;97.30
7648;DHT22;3866;48.020;11.720;2023-04-06T10:41:40;9.00;99.50
7648;DHT22;3866;48.020;11.720;2023-04-06T10:44:07;9.10;99.90
7648;DHT22;3866;48.020;11.720;2023-04-06T10:46:34;9.60;99.90
7648;DHT22;3866;48.020;11.720;2023-04-06T10:49:10;9.80;99.90
7648;DHT22;3866;48.020;11.720;2023-04-06T10:51:38;10.00;99.90
7648;DHT22;3866;48.020;11.720;2023-04-06T10:54:06;10.30;99.90
7648;DHT22;3866;48.020;11.720;2023-04-06T10:56:38;10.70;99.70
7648;DHT22;3866;48.020;11.720;2023-04-06T10:59:06;10.30;99.90
7648;DHT22;3866;48.020;11.720;2023-04-06T11:01:34;9.90;99.90
7648;DHT22;3866;48.020;11.720;2023-04-06T11:04:01;9.70;99.90
7648;DHT22;3866;48.020;11.720;2023-04-06T11:06:30;9.90;99.90
7648;DHT22;3866;48.020;11.720;2023-04-06T11:08:58;10.60;99.90
7648;DHT22;3866;48.020;11.720;2023-04-06T11:11:26;10.90;99.90
7648;DHT22;3866;48.020;11.720;2023-04-06T11:13:55;11.70;98.40
7648;DHT22;3866;48.020;11.720;2023-04-06T11:16:23;12.20;99.90
7648;DHT22;3866;48.020;11.720;2023-04-06T11:18:53;12.30;98.30
7648;DHT22;3866;48.020;11.720;2023-04-06T11:21:30;12.30;98.60
7648;DHT22;3866;48.020;11.720;2023-04-06T11:24:07;12.00;97.10
7648;DHT22;3866;48.020;11.720;2023-04-06T11:26:39;13.30;98.30
7648;DHT22;3866;48.020;11.720;2023-04-06T11:29:07;13.20;97.00
7648;DHT22;3866;48.020;11.720;2023-04-06T11:31:39;13.50;96.00
7648;DHT22;3866;48.020;11.720;2023-04-06T11:34:11;12.90;96.70
7648;DHT22;3866;48.020;11.720;2023-04-06T11:36:41;11.60;98.00
7648;DHT22;3866;48.020;11.720;2023-04-06T11:39:08;10.70;98.30
7648;DHT22;3866;48.020;11.720;2023-04-06T11:41:36;11.10;99.70
7648;DHT22;3866;48.020;11.720;2023-04-06T11:44:04;12.20;98.20
7648;DHT22;3866;48.020;11.720;2023-04-06T11:46:33;12.70;98.30
7648;DHT22;3866;48.020;11.720;2023-04-06T11:49:01;13.20;96.80
7648;DHT22;3866;48.020;11.720;2023-04-06T11:51:28;13.00;97.70
7648;DHT22;3866;48.020;11.720;2023-04-06T11:53:55;12.90;96.40
7648;DHT22;3866;48.020;11.720;2023-04-06T11:56:24;13.50;97.60
7648;DHT22;3866;48.020;11.720;2023-04-06T11:58:51;14.00;98.40
7648;DHT22;3866;48.020;11.720;2023-04-06T12:01:18;14.00;98.40
7648;DHT22;3866;48.020;11.720;2023-04-06T12:03:47;12.80;98.00
7648;DHT22;3866;48.020;11.720;2023-04-06T12:06:14;12.80;99.10
7648;DHT22;3866;48.020;11.720;2023-04-06T12:08:41;13.90;96.70
7648;DHT22;3866;48.020;11.720;2023-04-06T12:11:08;14.50;98.20
7648;DHT22;3866;48.020;11.720;2023-04-06T12:13:35;14.10;97.70
7648;DHT22;3866;48.020;11.720;2023-04-06T12:16:06;14.30;99.50
7648;DHT22;3866;48.020;11.720;2023-04-06T12:18:33;14.10;97.80
7648;DHT22;3866;48.020;11.720;2023-04-06T12:21:01;13.90;97.60
7648;DHT22;3866;48.020;11.720;2023-04-06T12:23:28;13.40;97.80
7648;DHT22;3866;48.020;11.720;2023-04-06T12:25:55;13.60;98.40
7648;DHT22;3866;48.020;11.720;2023-04-06T12:28:22;12.80;96.80
7648;DHT22;3866;48.020;11.720;2023-04-06T12:30:52;13.60;97.70
7648;DHT22;3866;48.020;11.720;2023-04-06T12:33:20;13.70;96.10
7648;DHT22;3866;48.020;11.720;2023-04-06T12:35:47;13.80;95.80
7648;DHT22;3866;48.020;11.720;2023-04-06T12:38:16;13.60;97.10
7648;DHT22;3866;48.020;11.720;2023-04-06T12:40:43;14.10;96.50
7648;DHT22;3866;48.020;11.720;2023-04-06T12:43:10;14.80;95.50
7648;DHT22;3866;48.020;11.720;2023-04-06T12:45:38;15.90;94.10
7648;DHT22;3866;48.020;11.720;2023-04-06T12:48:06;16.20;93.40
7648;DHT22;3866;48.020;11.720;2023-04-06T12:50:33;17.00;92.20
7648;DHT22;3866;48.020;11.720;2023-04-06T12:53:00;16.70;93.50
7648;DHT22;3866;48.020;11.720;2023-04-06T12:55:30;15.10;93.60
7648;DHT22;3866;48.020;11.720;2023-04-06T12:57:59;16.10;94.70
7648;DHT22;3866;48.020;11.720;2023-04-06T13:00:27;15.80;94.20
7648;DHT22;3866;48.020;11.720;2023-04-06T13:02:54;15.90;93.50
7648;DHT22;3866;48.020;11.720;2023-04-06T13:05:21;16.30;95.20
7648;DHT22;3866;48.020;11.720;2023-04-06T13:07:48;16.70;94.30
7648;DHT22;3866;48.020;11.720;2023-04-06T13:10:15;15.30;97.00
7648;DHT22;3866;48.020;11.720;2023-04-06T13:12:43;15.20;95.50
7648;DHT22;3866;48.020;11.720;2023-04-06T13:15:11;14.10;95.40
7648;DHT22;3866;48.020;11.720;2023-04-06T13:17:38;13.50;95.40
7648;DHT22;3866;48.020;11.720;2023-04-06T13:20:06;13.50;97.00
7648;DHT22;3866;48.020;11.720;2023-04-06T13:22:33;13.50;95.40
7648;DHT22;3866;48.020;11.720;2023-04-06T13:25:00;12.70;93.40
7648;DHT22;3866;48.020;11.720;2023-04-06T13:27:27;12.50;94.40
7648;DHT22;3866;48.020;11.720;2023-04-06T13:29:55;12.60;94.50
7648;DHT22;3866;48.020;11.720;2023-04-06T13:32:23;12.40;93.70
7648;DHT22;3866;48.020;11.720;2023-04-06T13:34:50;12.20;95.10
7648;DHT22;3866;48.020;11.720;2023-04-06T13:37:18;12.40;95.70
7648;DHT22;3866;48.020;11.720;2023-04-06T13:39:45;12.20;95.20
7648;DHT22;3866;48.020;11.720;2023-04-06T13:42:12;12.40;96.80
7648;DHT22;3866;48.020;11.720;2023-04-06T13:44:39;12.50;96.50
7648;DHT22;3866;48.020;11.720;2023-04-06T13:47:08;12.60;95.30
7648;DHT22;3866;48.020;11.720;2023-04-06T13:49:35;12.50;94.70
7648;DHT22;3866;48.020;11.720;2023-04-06T13:52:02;12.10;95.30
7648;DHT22;3866;48.020;11.720;2023-04-06T13:54:29;12.20;94.50
7648;DHT22;3866;48.020;11.720;2023-04-06T13:56:56;11.80;96.30
7648;DHT22;3866;48.020;11.720;2023-04-06T13:59:23;11.50;96.30
7648;DHT22;3866;48.020;11.720;2023-04-06T14:01:50;11.50;96.90
7648;DHT22;3866;48.020;11.720;2023-04-06T14:04:18;11.40;96.70
7648;DHT22;3866;48.020;11.720;2023-04-06T14:06:45;11.50;96.70
7648;DHT22;3866;48.020;11.720;2023-04-06T14:09:13;11.40;95.30
7648;DHT22;3866;48.020;11.720;2023-04-06T14:11:40;11.70;96.10
7648;DHT22;3866;48.020;11.720;2023-04-06T14:14:06;11.40;95.90
7648;DHT22;3866;48.020;11.720;2023-04-06T14:16:33;11.10;95.40
7648;DHT22;3866;48.020;11.720;2023-04-06T14:19:01;11.30;95.70
7648;DHT22;3866;48.020;11.720;2023-04-06T14:21:29;11.50;97.50
7648;DHT22;3866;48.020;11.720;2023-04-06T14:23:56;11.90;96.60
7648;DHT22;3866;48.020;11.720;2023-04-06T14:26:23;11.80;96.40
7648;DHT22;3866;48.020;11.720;2023-04-06T14:28:50;11.70;97.70
7648;DHT22;3866;48.020;11.720;2023-04-06T14:31:18;11.40;95.70
7648;DHT22;3866;48.020;11.720;2023-04-06T14:33:45;11.40;95.80
7648;DHT22;3866;48.020;11.720;2023-04-06T14:36:12;11.20;96.20
7648;DHT22;3866;48.020;11.720;2023-04-06T14:38:40;11.10;97.40
7648;DHT22;3866;48.020;11.720;2023-04-06T14:41:14;11.40;96.40
7648;DHT22;3866;48.020;11.720;2023-04-06T14:43:42;11.40;96.30
7648;DHT22;3866;48.020;11.720;2023-04-06T14:46:08;11.70;96.50
7648;DHT22;3866;48.020;11.720;2023-04-06T14:48:36;11.70;96.30
7648;DHT22;3866;48.020;11.720;2023-04-06T14:51:03;11.90;96.20
7648;DHT22;3866;48.020;11.720;2023-04-06T14:53:30;12.10;95.60
7648;DHT22;3866;48.020;11.720;2023-04-06T14:55:58;11.80;96.50
7648;DHT22;3866;48.020;11.720;2023-04-06T14:58:26;11.80;95.60
7648;DHT22;3866;48.020;11.720;2023-04-06T15:00:55;11.60;97.30
7648;DHT22;3866;48.020;11.720;2023-04-06T15:03:23;11.70;95.70
7648;DHT22;3866;48.020;11.720;2023-04-06T15:05:50;11.10;97.30
7648;DHT22;3866;48.020;11.720;2023-04-06T15:08:17;11.20;95.70
7648;DHT22;3866;48.020;11.720;2023-04-06T15:10:46;11.40;95.60
7648;DHT22;3866;48.020;11.720;2023-04-06T15:13:14;11.30;96.50
7648;DHT22;3866;48.020;11.720;2023-04-06T15:15:41;11.30;95.30
7648;DHT22;3866;48.020;11.720;2023-04-06T15:18:08;11.10;97.10
7648;DHT22;3866;48.020;11.720;2023-04-06T15:20:35;11.10;97.20
7648;DHT22;3866;48.020;11.720;2023-04-06T15:23:03;11.20;97.30
7648;DHT22;3866;48.020;11.720;2023-04-06T15:25:30;11.30;96.90
7648;DHT22;3866;48.020;11.720;2023-04-06T15:27:57;11.40;97.00
7648;DHT22;3866;48.020;11.720;2023-04-06T15:30:25;11.40;96.60
7648;DHT22;3866;48.020;11.720;2023-04-06T15:32:54;11.90;97.70
7648;DHT22;3866;48.020;11.720;2023-04-06T15:35:22;12.10;97.10
7648;DHT22;3866;48.020;11.720;2023-04-06T15:37:49;12.20;96.40
7648;DHT22;3866;48.020;11.720;2023-04-06T15:40:16;11.70;95.40
7648;DHT22;3866;48.020;11.720;2023-04-06T15:42:43;11.30;96.90
7648;DHT22;3866;48.020;11.720;2023-04-06T15:45:10;11.10;96.60
7648;DHT22;3866;48.020;11.720;2023-04-06T15:47:40;11.00;96.30
7648;DHT22;3866;48.020;11.720;2023-04-06T15:50:08;10.90;96.50